createdAt,value
2022-12-08T05:07:01.028Z,100422.19
2022-12-08T05:10:04.237Z,100422.78
2022-12-08T05:13:06.633Z,100423.81
2022-12-08T05:16:11.882Z,100420.56
2022-12-08T05:19:14.714Z,100426.00
2022-12-08T05:22:17.031Z,100426.81
2022-12-08T05:25:19.108Z,100434.84
2022-12-08T05:28:43.914Z,100434.72
2022-12-08T05:31:43.831Z,100427.81
2022-12-08T05:34:46.245Z,100418.34
2022-12-08T05:37:48.291Z,100416.28
2022-12-08T05:40:50.596Z,100409.59
2022-12-08T05:43:52.863Z,100399.66
2022-12-08T05:46:55.219Z,100392.69
2022-12-08T05:49:57.300Z,100394.81
2022-12-08T05:52:59.649Z,100404.75
2022-12-08T05:56:01.801Z,100408.34
2022-12-08T05:59:07.675Z,100408.66
2022-12-08T06:02:09.854Z,100408.88
2022-12-08T06:05:12.389Z,100412.97
2022-12-08T06:08:16.030Z,100411.56
2022-12-08T06:11:30.062Z,100411.53
2022-12-08T06:14:32.132Z,100418.47
2022-12-08T06:17:34.687Z,100420.91
2022-12-08T06:20:36.804Z,100423.31
2022-12-08T06:23:39.583Z,100426.19
2022-12-08T06:26:41.735Z,100426.19
2022-12-08T06:29:44.340Z,100423.19
2022-12-08T06:32:46.396Z,100424.66
2022-12-08T06:35:48.757Z,100428.44
2022-12-08T06:38:51.245Z,100436.53
2022-12-08T06:42:12.278Z,100434.13
2022-12-08T06:45:16.449Z,100438.16
2022-12-08T06:48:19.817Z,100436.87
2022-12-08T06:51:23.502Z,100433.37
2022-12-08T06:54:27.571Z,100431.28
2022-12-08T06:57:29.741Z,100436.84
2022-12-08T07:00:32.093Z,100442.69
2022-12-08T07:03:34.683Z,100442.22
2022-12-08T07:06:37.940Z,100442.78
2022-12-08T07:09:40.468Z,100437.84
2022-12-08T07:12:42.810Z,100436.72
2022-12-08T07:15:44.852Z,100437.81
2022-12-08T07:18:47.181Z,100445.38
2022-12-08T07:21:49.220Z,100438.28
2022-12-08T07:24:51.524Z,100434.09
2022-12-08T07:27:53.626Z,100433.50
2022-12-08T07:30:56.312Z,100432.75
2022-12-08T07:33:58.553Z,100430.91
2022-12-08T07:37:02.076Z,100436.44
2022-12-08T07:40:08.506Z,100433.84
2022-12-08T07:43:11.026Z,100428.38
2022-12-08T07:46:15.918Z,100427.34
2022-12-08T07:49:18.370Z,100434.16
2022-12-08T07:52:20.498Z,100427.66
2022-12-08T07:55:25.306Z,100421.38
2022-12-08T07:58:27.684Z,100423.34
2022-12-08T08:01:33.228Z,100425.84
2022-12-08T08:04:35.642Z,100428.56
2022-12-08T08:07:38.594Z,100429.19
2022-12-08T08:10:40.981Z,100431.38
2022-12-08T08:13:43.068Z,100429.12
2022-12-08T08:16:47.372Z,100425.09
2022-12-08T08:19:49.569Z,100422.56
2022-12-08T08:22:52.414Z,100421.19
2022-12-08T08:25:54.732Z,100421.19
2022-12-08T08:28:57.057Z,100413.28
2022-12-08T08:31:59.894Z,100407.47
2022-12-08T08:35:03.608Z,100420.28
2022-12-08T08:38:05.874Z,100411.50
2022-12-08T08:41:11.173Z,100410.16
2022-12-08T08:44:14.964Z,100421.91
2022-12-08T08:47:17.555Z,100417.38
2022-12-08T08:50:19.670Z,100412.63
2022-12-08T08:53:22.781Z,100403.00
2022-12-08T08:56:25.022Z,100414.09
2022-12-08T08:59:28.377Z,100412.38
2022-12-08T09:02:30.460Z,100402.78
2022-12-08T09:05:32.823Z,100399.91
2022-12-08T09:08:34.856Z,100404.16
2022-12-08T09:11:37.585Z,100395.72
2022-12-08T09:14:40.148Z,100404.94
2022-12-08T09:17:42.723Z,100406.44
2022-12-08T09:20:44.788Z,100389.72
2022-12-08T09:23:47.095Z,100382.19
2022-12-08T09:26:49.360Z,100374.38
2022-12-08T09:29:51.716Z,100397.63
2022-12-08T09:32:53.969Z,100388.69
2022-12-08T09:35:56.875Z,100398.47
2022-12-08T09:38:59.063Z,100391.97
2022-12-08T09:42:05.031Z,100389.03
2022-12-08T09:45:18.597Z,100385.13
2022-12-08T09:48:33.833Z,100369.09
2022-12-08T09:51:40.409Z,100354.09
2022-12-08T09:54:42.738Z,100347.88
2022-12-08T09:57:46.327Z,100353.19
2022-12-08T10:00:50.013Z,100351.16
2022-12-08T10:03:52.424Z,100353.06
2022-12-08T10:06:59.917Z,100356.16
2022-12-08T10:10:37.894Z,100338.63
2022-12-08T10:13:52.589Z,100354.25
2022-12-08T10:17:04.660Z,100355.34
2022-12-08T10:20:15.800Z,100351.88
2022-12-08T10:23:34.479Z,100357.94
2022-12-08T10:26:36.508Z,100343.88
2022-12-08T10:29:40.404Z,100348.41
2022-12-08T10:32:45.788Z,100345.19
2022-12-08T10:35:54.396Z,100337.97
2022-12-08T10:38:56.467Z,100325.34
2022-12-08T10:42:08.879Z,100324.87
2022-12-08T10:45:27.907Z,100312.84
2022-12-08T10:48:33.795Z,100306.72
2022-12-08T10:51:41.554Z,100298.22
2022-12-08T10:54:43.935Z,100297.22
2022-12-08T10:57:48.910Z,100283.59
2022-12-08T11:00:55.470Z,100289.13
2022-12-08T11:04:03.999Z,100282.16
2022-12-08T11:07:09.097Z,100274.97
2022-12-08T11:10:18.758Z,100273.00
2022-12-08T11:13:27.181Z,100276.84
2022-12-08T11:16:29.631Z,100262.81
2022-12-08T11:19:37.859Z,100251.84
2022-12-08T11:22:41.100Z,100241.66
2022-12-08T11:25:43.866Z,100246.53
2022-12-08T11:28:46.107Z,100239.59
2022-12-08T11:31:54.731Z,100228.16
2022-12-08T11:35:03.647Z,100226.31
2022-12-08T11:38:21.622Z,100211.62
2022-12-08T11:41:31.345Z,100193.22
2022-12-08T11:44:42.198Z,100186.03
2022-12-08T11:47:55.485Z,100186.25
2022-12-08T11:51:08.411Z,100191.81
2022-12-08T11:54:26.482Z,100186.50
2022-12-08T11:57:29.781Z,100188.09
2022-12-08T12:00:32.224Z,100185.69
2022-12-08T12:03:44.120Z,100180.66
2022-12-08T12:07:25.839Z,100181.47
2022-12-08T12:10:35.779Z,100186.84
2022-12-08T12:14:09.377Z,100184.44
2022-12-08T12:17:44.128Z,100186.25
2022-12-08T12:20:59.377Z,100190.81
2022-12-08T12:24:35.742Z,100187.62
2022-12-08T12:27:40.255Z,100186.03
2022-12-08T12:31:11.547Z,100186.28
2022-12-08T12:34:36.331Z,100184.16
2022-12-08T12:37:42.734Z,100183.59
2022-12-08T12:40:45.077Z,100189.16
2022-12-08T12:44:22.623Z,100189.97
2022-12-08T12:47:55.841Z,100187.88
2022-12-08T12:50:58.860Z,100179.59
2022-12-08T12:54:24.329Z,100175.87
2022-12-08T12:57:37.587Z,100159.88
2022-12-08T13:00:40.101Z,100149.75
2022-12-08T13:04:02.458Z,100154.75
2022-12-08T13:07:05.394Z,100163.88
2022-12-08T13:10:29.155Z,100155.81
2022-12-08T13:13:32.110Z,100147.75
2022-12-08T13:16:38.490Z,100144.63
2022-12-08T13:19:41.877Z,100150.50
2022-12-08T13:23:03.248Z,100140.41
2022-12-08T13:26:16.367Z,100139.63
2022-12-08T13:29:26.152Z,100137.47
2022-12-08T13:32:28.173Z,100132.94
2022-12-08T13:35:30.865Z,100138.00
2022-12-08T13:38:37.202Z,100144.16
2022-12-08T13:41:47.717Z,100151.88
2022-12-08T13:45:21.371Z,100148.38
2022-12-08T13:49:03.333Z,100152.66
2022-12-08T13:53:35.049Z,100141.72
2022-12-08T13:58:44.497Z,100142.81
2022-12-08T14:01:51.140Z,100137.47
2022-12-08T14:08:57.922Z,100138.81
2022-12-08T14:11:55.841Z,100139.59
2022-12-08T14:15:15.499Z,100137.19
2022-12-08T14:18:26.737Z,100133.97
2022-12-08T14:21:34.427Z,100135.84
2022-12-08T14:24:38.640Z,100134.81
2022-12-08T14:27:41.000Z,100148.66
2022-12-08T14:30:43.945Z,100147.88
2022-12-08T14:33:49.380Z,100144.41
2022-12-08T14:36:55.906Z,100143.84
2022-12-08T14:40:03.330Z,100151.09
2022-12-08T14:43:14.911Z,100146.53
2022-12-08T14:46:22.897Z,100137.19
2022-12-08T14:49:37.103Z,100146.28
2022-12-08T14:52:44.343Z,100145.47
2022-12-08T14:55:48.497Z,100150.53
2022-12-08T14:59:06.244Z,100142.78
2022-12-08T15:02:25.541Z,100137.19
2022-12-08T15:05:31.404Z,100137.72
2022-12-08T15:08:35.281Z,100133.19
2022-12-08T15:11:37.307Z,100137.47
2022-12-08T15:14:56.380Z,100130.53
2022-12-08T15:18:12.136Z,100140.41
2022-12-08T15:21:14.554Z,100132.16
2022-12-08T15:24:18.493Z,100126.78
2022-12-08T15:27:22.986Z,100130.81
2022-12-08T15:30:28.615Z,100138.53
2022-12-08T15:33:30.940Z,100126.28
2022-12-08T15:36:33.048Z,100118.25
2022-12-08T15:39:37.693Z,100125.72
2022-12-08T15:42:39.711Z,100117.41
2022-12-08T15:45:49.345Z,100127.50
2022-12-08T15:48:58.326Z,100114.50
2022-12-08T15:52:11.258Z,100102.22
2022-12-08T15:55:15.247Z,100099.59
2022-12-08T16:01:46.595Z,100113.72
2022-12-08T16:08:44.573Z,100129.44
2022-12-08T16:12:06.533Z,100116.59
2022-12-08T16:18:36.579Z,100112.88
2022-12-08T16:25:14.709Z,100116.38
2022-12-08T16:31:42.395Z,100087.81
2022-12-08T16:34:44.482Z,100091.00
2022-12-08T16:37:46.834Z,100087.28
2022-12-08T16:41:07.551Z,100094.16
2022-12-08T16:44:09.855Z,100086.44
2022-12-08T16:47:11.933Z,100096.78
2022-12-08T16:50:28.803Z,100098.16
2022-12-08T16:53:30.848Z,100104.91
